sensor_id;sensor_type;location;lat;lon;timestamp;pressure;altitude;pressure_sealevel;temperature;humidity
45255;BME280;30989;52.078;21.014;2023-06-22T00:01:16;168833.13;;;19.29;100.00
45255;BME280;30989;52.078;21.014;2023-06-22T00:03:42;168826.41;;;19.26;100.00
45255;BME280;30989;52.078;21.014;2023-06-22T00:06:07;168825.06;;;19.26;100.00
45255;BME280;30989;52.078;21.014;2023-06-22T00:08:33;168817.00;;;19.23;100.00
45255;BME280;30989;52.078;21.014;2023-06-22T00:10:58;168811.59;;;19.21;100.00
45255;BME280;30989;52.078;21.014;2023-06-22T00:13:24;168794.09;;;19.14;100.00
45255;BME280;30989;52.078;21.014;2023-06-22T00:15:49;168790.06;;;19.13;100.00
45255;BME280;30989;52.078;21.014;2023-06-22T00:18:15;168777.97;;;19.08;100.00
45255;BME280;30989;52.078;21.014;2023-06-22T00:20:41;168767.19;;;19.04;100.00
45255;BME280;30989;52.078;21.014;2023-06-22T00:23:07;168768.53;;;19.05;100.00
45255;BME280;30989;52.078;21.014;2023-06-22T00:25:34;168763.16;;;19.03;100.00
45255;BME280;30989;52.078;21.014;2023-06-22T00:28:00;168757.75;;;19.00;100.00
45255;BME280;30989;52.078;21.014;2023-06-22T00:30:26;168764.50;;;19.03;100.00
45255;BME280;30989;52.078;21.014;2023-06-22T00:32:52;168757.75;;;19.00;100.00
45255;BME280;30989;52.078;21.014;2023-06-22T00:35:17;168752.38;;;18.98;100.00
45255;BME280;30989;52.078;21.014;2023-06-22T00:37:43;168759.09;;;19.01;100.00
45255;BME280;30989;52.078;21.014;2023-06-22T00:40:11;168752.38;;;18.98;100.00
45255;BME280;30989;52.078;21.014;2023-06-22T00:42:40;168755.06;;;18.99;100.00
45255;BME280;30989;52.078;21.014;2023-06-22T00:45:07;168755.06;;;18.99;100.00
45255;BME280;30989;52.078;21.014;2023-06-22T00:47:37;168749.69;;;18.97;100.00
45255;BME280;30989;52.078;21.014;2023-06-22T00:50:06;168755.06;;;18.99;100.00
45255;BME280;30989;52.078;21.014;2023-06-22T00:52:32;168748.34;;;18.97;100.00
45255;BME280;30989;52.078;21.014;2023-06-22T00:55:01;168752.38;;;18.98;100.00
45255;BME280;30989;52.078;21.014;2023-06-22T00:57:27;168742.97;;;18.95;100.00
45255;BME280;30989;52.078;21.014;2023-06-22T00:59:54;168745.66;;;18.96;100.00
45255;BME280;30989;52.078;21.014;2023-06-22T01:02:20;168748.34;;;18.97;100.00
45255;BME280;30989;52.078;21.014;2023-06-22T01:04:46;168744.31;;;18.95;100.00
45255;BME280;30989;52.078;21.014;2023-06-22T01:07:38;168722.78;;;18.87;100.00
45255;BME280;30989;52.078;21.014;2023-06-22T01:10:16;168728.16;;;18.89;100.00
45255;BME280;30989;52.078;21.014;2023-06-22T01:12:48;168722.78;;;18.87;100.00
45255;BME280;30989;52.078;21.014;2023-06-22T01:15:31;168722.78;;;18.87;100.00
45255;BME280;30989;52.078;21.014;2023-06-22T01:17:59;168720.06;;;18.86;100.00
45255;BME280;30989;52.078;21.014;2023-06-22T01:20:25;168706.63;;;18.81;100.00
45255;BME280;30989;52.078;21.014;2023-06-22T01:26:12;168717.38;;;18.85;100.00
45255;BME280;30989;52.078;21.014;2023-06-22T01:28:43;168714.69;;;18.84;100.00
45255;BME280;30989;52.078;21.014;2023-06-22T01:31:12;168714.69;;;18.84;100.00
45255;BME280;30989;52.078;21.014;2023-06-22T01:33:41;168709.31;;;18.82;100.00
45255;BME280;30989;52.078;21.014;2023-06-22T01:36:08;168702.59;;;18.80;100.00
45255;BME280;30989;52.078;21.014;2023-06-22T01:38:35;168687.78;;;18.74;100.00
45255;BME280;30989;52.078;21.014;2023-06-22T01:41:03;168689.13;;;18.75;100.00
45255;BME280;30989;52.078;21.014;2023-06-22T01:43:30;168674.31;;;18.69;100.00
45255;BME280;30989;52.078;21.014;2023-06-22T01:45:57;168671.63;;;18.68;100.00
45255;BME280;30989;52.078;21.014;2023-06-22T01:48:23;168655.47;;;18.62;100.00
45255;BME280;30989;52.078;21.014;2023-06-22T01:50:51;168655.47;;;18.62;100.00
45255;BME280;30989;52.078;21.014;2023-06-22T01:53:17;168647.34;;;18.59;100.00
45255;BME280;30989;52.078;21.014;2023-06-22T01:55:44;168637.94;;;18.55;100.00
45255;BME280;30989;52.078;21.014;2023-06-22T01:58:09;168631.19;;;18.53;100.00
45255;BME280;30989;52.078;21.014;2023-06-22T02:00:38;168620.44;;;18.49;100.00
45255;BME280;30989;52.078;21.014;2023-06-22T02:03:14;168617.75;;;18.48;100.00
45255;BME280;30989;52.078;21.014;2023-06-22T02:05:49;168600.25;;;18.41;100.00
45255;BME280;30989;52.078;21.014;2023-06-22T02:08:20;168596.22;;;18.40;100.00
45255;BME280;30989;52.078;21.014;2023-06-22T02:10:47;168596.22;;;18.40;100.00
45255;BME280;30989;52.078;21.014;2023-06-22T02:13:14;168605.63;;;18.43;100.00
45255;BME280;30989;52.078;21.014;2023-06-22T02:15:40;168650.03;;;18.60;100.00
45255;BME280;30989;52.078;21.014;2023-06-22T02:18:06;168624.47;;;18.50;100.00
45255;BME280;30989;52.078;21.014;2023-06-22T02:20:32;168624.47;;;18.50;100.00
45255;BME280;30989;52.078;21.014;2023-06-22T02:22:57;168623.13;;;18.50;100.00
45255;BME280;30989;52.078;21.014;2023-06-22T02:25:24;168631.19;;;18.53;100.00
45255;BME280;30989;52.078;21.014;2023-06-22T02:27:49;168620.44;;;18.49;100.00
45255;BME280;30989;52.078;21.014;2023-06-22T02:30:16;168624.47;;;18.50;100.00
45255;BME280;30989;52.078;21.014;2023-06-22T02:32:42;168601.59;;;18.42;100.00
45255;BME280;30989;52.078;21.014;2023-06-22T02:35:11;168612.38;;;18.46;100.00
45255;BME280;30989;52.078;21.014;2023-06-22T02:37:37;168611.03;;;18.45;100.00
45255;BME280;30989;52.078;21.014;2023-06-22T02:40:09;168596.22;;;18.40;100.00
45255;BME280;30989;52.078;21.014;2023-06-22T02:42:36;168609.69;;;18.45;100.00
45255;BME280;30989;52.078;21.014;2023-06-22T02:45:02;168597.56;;;18.40;100.00
45255;BME280;30989;52.078;21.014;2023-06-22T02:47:27;168616.41;;;18.47;100.00
45255;BME280;30989;52.078;21.014;2023-06-22T02:49:53;168620.44;;;18.49;100.00
45255;BME280;30989;52.078;21.014;2023-06-22T02:52:19;168625.81;;;18.51;100.00
45255;BME280;30989;52.078;21.014;2023-06-22T02:54:44;168643.31;;;18.57;100.00
45255;BME280;30989;52.078;21.014;2023-06-22T02:57:12;168658.16;;;18.63;100.00
45255;BME280;30989;52.078;21.014;2023-06-22T02:59:40;168663.56;;;18.65;100.00
45255;BME280;30989;52.078;21.014;2023-06-22T03:02:09;168683.75;;;18.73;100.00
45255;BME280;30989;52.078;21.014;2023-06-22T03:04:35;168691.81;;;18.76;100.00
45255;BME280;30989;52.078;21.014;2023-06-22T03:07:01;168699.88;;;18.79;100.00
45255;BME280;30989;52.078;21.014;2023-06-22T03:09:28;168703.94;;;18.80;100.00
45255;BME280;30989;52.078;21.014;2023-06-22T03:11:55;168705.28;;;18.81;100.00
45255;BME280;30989;52.078;21.014;2023-06-22T03:14:23;168717.38;;;18.85;100.00
45255;BME280;30989;52.078;21.014;2023-06-22T03:16:51;168706.63;;;18.81;100.00
45255;BME280;30989;52.078;21.014;2023-06-22T03:19:18;168736.22;;;18.92;100.00
45255;BME280;30989;52.078;21.014;2023-06-22T03:21:44;168733.53;;;18.91;100.00
45255;BME280;30989;52.078;21.014;2023-06-22T03:24:10;168738.91;;;18.93;100.00
45255;BME280;30989;52.078;21.014;2023-06-22T03:26:37;168751.03;;;18.98;100.00
45255;BME280;30989;52.078;21.014;2023-06-22T03:29:02;168755.06;;;18.99;100.00
45255;BME280;30989;52.078;21.014;2023-06-22T03:31:29;168752.38;;;18.98;100.00
45255;BME280;30989;52.078;21.014;2023-06-22T03:33:55;168764.50;;;19.03;100.00
45255;BME280;30989;52.078;21.014;2023-06-22T03:36:22;168765.84;;;19.04;100.00
45255;BME280;30989;52.078;21.014;2023-06-22T03:38:49;168759.09;;;19.01;100.00
45255;BME280;30989;52.078;21.014;2023-06-22T03:41:15;168765.84;;;19.04;100.00
45255;BME280;30989;52.078;21.014;2023-06-22T03:43:42;168769.88;;;19.05;100.00
45255;BME280;30989;52.078;21.014;2023-06-22T03:46:07;168765.84;;;19.04;100.00
45255;BME280;30989;52.078;21.014;2023-06-22T03:48:33;168776.59;;;19.08;100.00
45255;BME280;30989;52.078;21.014;2023-06-22T03:51:02;168790.06;;;19.13;100.00
45255;BME280;30989;52.078;21.014;2023-06-22T03:53:28;168804.88;;;19.18;100.00
45255;BME280;30989;52.078;21.014;2023-06-22T03:55:54;168808.91;;;19.20;100.00
45255;BME280;30989;52.078;21.014;2023-06-22T03:58:20;168806.22;;;19.19;100.00
45255;BME280;30989;52.078;21.014;2023-06-22T04:00:52;168825.06;;;19.26;100.00
45255;BME280;30989;52.078;21.014;2023-06-22T04:03:18;168818.34;;;19.23;100.00
45255;BME280;30989;52.078;21.014;2023-06-22T04:05:44;168825.06;;;19.26;100.00
45255;BME280;30989;52.078;21.014;2023-06-22T04:08:10;168833.13;;;19.29;100.00
45255;BME280;30989;52.078;21.014;2023-06-22T04:10:36;168837.19;;;19.30;100.00
45255;BME280;30989;52.078;21.014;2023-06-22T04:13:01;168850.66;;;19.36;100.00
45255;BME280;30989;52.078;21.014;2023-06-22T04:15:27;168852.00;;;19.36;100.00
45255;BME280;30989;52.078;21.014;2023-06-22T04:17:54;168860.06;;;19.39;100.00
45255;BME280;30989;52.078;21.014;2023-06-22T04:20:20;168861.41;;;19.40;100.00
45255;BME280;30989;52.078;21.014;2023-06-22T04:22:45;168849.31;;;19.35;100.00
45255;BME280;30989;52.078;21.014;2023-06-22T04:25:11;168873.53;;;19.44;100.00
45255;BME280;30989;52.078;21.014;2023-06-22T04:27:37;168878.91;;;19.46;100.00
45255;BME280;30989;52.078;21.014;2023-06-22T04:30:07;168905.91;;;19.56;100.00
45255;BME280;30989;52.078;21.014;2023-06-22T04:32:34;168911.28;;;19.58;100.00
45255;BME280;30989;52.078;21.014;2023-06-22T04:35:02;168924.75;;;19.63;100.00
45255;BME280;30989;52.078;21.014;2023-06-22T04:37:30;168943.59;;;19.71;100.00
45255;BME280;30989;52.078;21.014;2023-06-22T04:39:55;168974.56;;;19.82;100.00
45255;BME280;30989;52.078;21.014;2023-06-22T04:42:21;168989.38;;;19.88;100.00
45255;BME280;30989;52.078;21.014;2023-06-22T04:44:46;168977.25;;;19.83;100.00
45255;BME280;30989;52.078;21.014;2023-06-22T04:47:11;169001.50;;;19.92;100.00
45255;BME280;30989;52.078;21.014;2023-06-22T04:49:37;169002.84;;;19.93;100.00
45255;BME280;30989;52.078;21.014;2023-06-22T04:52:05;169008.22;;;19.95;100.00
45255;BME280;30989;52.078;21.014;2023-06-22T04:54:31;169013.63;;;19.97;100.00
45255;BME280;30989;52.078;21.014;2023-06-22T04:57:03;169008.22;;;19.95;100.00
45255;BME280;30989;52.078;21.014;2023-06-22T04:59:30;169008.22;;;19.95;100.00
45255;BME280;30989;52.078;21.014;2023-06-22T05:01:56;169014.97;;;19.98;100.00
45255;BME280;30989;52.078;21.014;2023-06-22T05:04:22;169016.31;;;19.98;100.00
45255;BME280;30989;52.078;21.014;2023-06-22T05:06:50;169013.63;;;19.97;100.00
45255;BME280;30989;52.078;21.014;2023-06-22T05:09:15;169019.00;;;19.99;100.00
45255;BME280;30989;52.078;21.014;2023-06-22T05:11:41;169019.00;;;19.99;100.00
45255;BME280;30989;52.078;21.014;2023-06-22T05:14:07;169032.47;;;20.04;100.00
45255;BME280;30989;52.078;21.014;2023-06-22T05:16:32;169039.22;;;20.07;100.00
45255;BME280;30989;52.078;21.014;2023-06-22T05:18:58;169052.69;;;20.12;100.00
45255;BME280;30989;52.078;21.014;2023-06-22T05:21:25;169055.38;;;20.13;100.00
45255;BME280;30989;52.078;21.014;2023-06-22T05:23:51;169056.72;;;20.13;100.00
45255;BME280;30989;52.078;21.014;2023-06-22T05:26:18;169060.75;;;20.15;100.00
45255;BME280;30989;52.078;21.014;2023-06-22T05:28:45;169089.03;;;20.25;100.00
45255;BME280;30989;52.078;21.014;2023-06-22T05:31:13;169091.72;;;20.26;100.00
45255;BME280;30989;52.078;21.014;2023-06-22T05:33:39;169102.50;;;20.31;100.00
45255;BME280;30989;52.078;21.014;2023-06-22T05:36:05;169094.44;;;20.27;100.00
45255;BME280;30989;52.078;21.014;2023-06-22T05:38:30;169110.59;;;20.34;100.00
45255;BME280;30989;52.078;21.014;2023-06-22T05:40:56;169122.72;;;20.38;100.00
45255;BME280;30989;52.078;21.014;2023-06-22T05:43:22;169129.50;;;20.41;100.00
45255;BME280;30989;52.078;21.014;2023-06-22T05:45:47;169132.19;;;20.42;100.00
45255;BME280;30989;52.078;21.014;2023-06-22T05:48:13;169126.81;;;20.40;100.00
45255;BME280;30989;52.078;21.014;2023-06-22T05:50:38;169105.19;;;20.32;100.00
45255;BME280;30989;52.078;21.014;2023-06-22T05:53:04;169121.38;;;20.38;100.00
45255;BME280;30989;52.078;21.014;2023-06-22T05:55:29;169134.88;;;20.43;100.00
45255;BME280;30989;52.078;21.014;2023-06-22T05:57:54;169144.31;;;20.46;100.00
45255;BME280;30989;52.078;21.014;2023-06-22T06:00:20;169155.09;;;20.50;100.00
45255;BME280;30989;52.078;21.014;2023-06-22T06:02:47;169165.88;;;20.54;100.00
45255;BME280;30989;52.078;21.014;2023-06-22T06:05:14;169168.56;;;20.55;100.00
45255;BME280;30989;52.078;21.014;2023-06-22T06:07:41;169164.53;;;20.54;100.00
45255;BME280;30989;52.078;21.014;2023-06-22T06:10:06;169167.22;;;20.55;100.00
45255;BME280;30989;52.078;21.014;2023-06-22T06:12:32;169175.31;;;20.58;100.00
45255;BME280;30989;52.078;21.014;2023-06-22T06:14:58;169188.78;;;20.63;100.00
45255;BME280;30989;52.078;21.014;2023-06-22T06:17:23;169196.84;;;20.66;100.00
45255;BME280;30989;52.078;21.014;2023-06-22T06:19:49;169211.66;;;20.72;100.00
45255;BME280;30989;52.078;21.014;2023-06-22T06:22:14;169211.66;;;20.72;100.00
45255;BME280;30989;52.078;21.014;2023-06-22T06:24:40;169234.63;;;20.80;100.00
45255;BME280;30989;52.078;21.014;2023-06-22T06:27:05;169242.72;;;20.83;100.00
45255;BME280;30989;52.078;21.014;2023-06-22T06:29:34;169269.66;;;20.94;100.00
45255;BME280;30989;52.078;21.014;2023-06-22T06:31:59;169285.81;;;21.00;100.00
45255;BME280;30989;52.078;21.014;2023-06-22T06:34:25;169293.91;;;21.03;100.00
45255;BME280;30989;52.078;21.014;2023-06-22T06:36:50;169320.88;;;21.13;100.00
45255;BME280;30989;52.078;21.014;2023-06-22T06:39:16;169347.88;;;21.23;100.00
45255;BME280;30989;52.078;21.014;2023-06-22T06:41:42;169370.78;;;21.32;100.00
45255;BME280;30989;52.078;21.014;2023-06-22T06:44:14;169393.69;;;21.40;100.00
45255;BME280;30989;52.078;21.014;2023-06-22T06:46:39;169430.06;;;21.54;100.00
45255;BME280;30989;52.078;21.014;2023-06-22T06:49:05;169455.69;;;21.64;100.00
45255;BME280;30989;52.078;21.014;2023-06-22T06:51:30;169479.94;;;21.73;100.00
45255;BME280;30989;52.078;21.014;2023-06-22T06:53:56;169520.38;;;21.88;100.00
45255;BME280;30989;52.078;21.014;2023-06-22T06:56:21;169536.56;;;21.94;100.00
45255;BME280;30989;52.078;21.014;2023-06-22T06:58:50;169568.97;;;22.06;100.00
45255;BME280;30989;52.078;21.014;2023-06-22T07:01:15;169593.22;;;22.15;100.00
45255;BME280;30989;52.078;21.014;2023-06-22T07:03:41;169616.16;;;22.24;100.00
45255;BME280;30989;52.078;21.014;2023-06-22T07:06:06;169639.06;;;22.33;100.00
45255;BME280;30989;52.078;21.014;2023-06-22T07:08:32;169672.78;;;22.45;100.00
45255;BME280;30989;52.078;21.014;2023-06-22T07:10:57;169713.25;;;22.61;100.00
45255;BME280;30989;52.078;21.014;2023-06-22T07:13:23;169749.66;;;22.74;100.00
45255;BME280;30989;52.078;21.014;2023-06-22T07:15:48;169778.03;;;22.85;100.00
45255;BME280;30989;52.078;21.014;2023-06-22T07:18:14;169776.69;;;22.85;100.00
45255;BME280;30989;52.078;21.014;2023-06-22T07:20:39;169773.97;;;22.83;100.00
45255;BME280;30989;52.078;21.014;2023-06-22T07:23:06;169772.63;;;22.83;100.00
45255;BME280;30989;52.078;21.014;2023-06-22T07:25:32;169771.28;;;22.82;100.00
45255;BME280;30989;52.078;21.014;2023-06-22T07:28:03;169784.78;;;22.88;100.00
45255;BME280;30989;52.078;21.014;2023-06-22T07:30:29;169800.97;;;22.94;100.00
45255;BME280;30989;52.078;21.014;2023-06-22T07:32:55;169822.53;;;23.02;100.00
45255;BME280;30989;52.078;21.014;2023-06-22T07:35:21;169849.50;;;23.12;100.00
45255;BME280;30989;52.078;21.014;2023-06-22T07:37:46;169873.78;;;23.21;100.00
45255;BME280;30989;52.078;21.014;2023-06-22T07:40:12;169889.97;;;23.27;100.00
45255;BME280;30989;52.078;21.014;2023-06-22T07:42:38;169891.31;;;23.28;100.00
45255;BME280;30989;52.078;21.014;2023-06-22T07:45:04;169904.81;;;23.33;100.00
45255;BME280;30989;52.078;21.014;2023-06-22T07:47:30;169918.31;;;23.38;100.00
45255;BME280;30989;52.078;21.014;2023-06-22T07:49:58;169916.97;;;23.37;100.00
45255;BME280;30989;52.078;21.014;2023-06-22T07:52:26;169938.53;;;23.45;100.00
45255;BME280;30989;52.078;21.014;2023-06-22T07:54:52;169953.38;;;23.51;100.00
45255;BME280;30989;52.078;21.014;2023-06-22T07:57:17;169973.69;;;23.59;100.00
45255;BME280;30989;52.078;21.014;2023-06-22T07:59:43;170003.34;;;23.70;100.00
45255;BME280;30989;52.078;21.014;2023-06-22T08:02:08;170016.84;;;23.75;100.00
45255;BME280;30989;52.078;21.014;2023-06-22T08:04:35;170026.28;;;23.78;99.94
45255;BME280;30989;52.078;21.014;2023-06-22T08:07:01;170033.03;;;23.81;100.00
45255;BME280;30989;52.078;21.014;2023-06-22T08:09:31;170050.56;;;23.88;99.31
45255;BME280;30989;52.078;21.014;2023-06-22T08:11:57;170065.41;;;23.93;100.00
45255;BME280;30989;52.078;21.014;2023-06-22T08:14:24;170065.41;;;23.93;97.69
45255;BME280;30989;52.078;21.014;2023-06-22T08:16:50;170073.53;;;23.96;96.40
45255;BME280;30989;52.078;21.014;2023-06-22T08:19:16;170097.81;;;24.05;98.91
45255;BME280;30989;52.078;21.014;2023-06-22T08:21:42;170132.91;;;24.19;100.00
45255;BME280;30989;52.078;21.014;2023-06-22T08:24:08;170149.09;;;24.25;96.67
45255;BME280;30989;52.078;21.014;2023-06-22T08:26:33;170159.94;;;24.29;93.46
45255;BME280;30989;52.078;21.014;2023-06-22T08:29:04;170176.13;;;24.35;94.33
45255;BME280;30989;52.078;21.014;2023-06-22T08:31:31;170184.25;;;24.38;92.12
45255;BME280;30989;52.078;21.014;2023-06-22T08:33:59;170203.13;;;24.45;93.53
45255;BME280;30989;52.078;21.014;2023-06-22T08:36:25;170216.63;;;24.50;92.79
45255;BME280;30989;52.078;21.014;2023-06-22T08:38:54;170219.31;;;24.51;89.91
45255;BME280;30989;52.078;21.014;2023-06-22T08:41:23;170231.47;;;24.56;90.42
45255;BME280;30989;52.078;21.014;2023-06-22T08:43:48;170244.97;;;24.61;88.12
45255;BME280;30989;52.078;21.014;2023-06-22T08:46:13;170258.47;;;24.66;90.89
45255;BME280;30989;52.078;21.014;2023-06-22T08:48:39;170282.78;;;24.75;91.72
45255;BME280;30989;52.078;21.014;2023-06-22T08:51:04;170313.81;;;24.87;89.90
45255;BME280;30989;52.078;21.014;2023-06-22T08:53:30;170327.31;;;24.92;83.75
45255;BME280;30989;52.078;21.014;2023-06-22T08:55:55;170340.88;;;24.97;83.79
45255;BME280;30989;52.078;21.014;2023-06-22T08:58:21;170371.94;;;25.09;82.19
45255;BME280;30989;52.078;21.014;2023-06-22T09:00:47;170392.19;;;25.16;81.97
45255;BME280;30989;52.078;21.014;2023-06-22T09:03:13;170397.59;;;25.18;80.03
45255;BME280;30989;52.078;21.014;2023-06-22T09:05:38;170402.97;;;25.20;82.59
45255;BME280;30989;52.078;21.014;2023-06-22T09:08:04;170401.63;;;25.20;73.63
45255;BME280;30989;52.078;21.014;2023-06-22T09:10:30;170396.22;;;25.18;78.90
45255;BME280;30989;52.078;21.014;2023-06-22T09:12:56;170404.34;;;25.21;75.93
45255;BME280;30989;52.078;21.014;2023-06-22T09:15:23;170407.03;;;25.22;73.61
45255;BME280;30989;52.078;21.014;2023-06-22T09:17:48;170405.69;;;25.21;77.29
45255;BME280;30989;52.078;21.014;2023-06-22T09:20:14;170411.09;;;25.23;72.56
45255;BME280;30989;52.078;21.014;2023-06-22T09:22:40;170434.03;;;25.32;73.61
45255;BME280;30989;52.078;21.014;2023-06-22T09:25:06;170425.94;;;25.29;72.23
45255;BME280;30989;52.078;21.014;2023-06-22T09:27:32;170436.75;;;25.33;74.14
45255;BME280;30989;52.078;21.014;2023-06-22T09:29:58;170470.50;;;25.46;75.13
45255;BME280;30989;52.078;21.014;2023-06-22T09:32:24;170498.84;;;25.56;71.30
45255;BME280;30989;52.078;21.014;2023-06-22T09:34:50;170505.63;;;25.59;73.76
45255;BME280;30989;52.078;21.014;2023-06-22T09:37:16;170532.66;;;25.69;73.67
45255;BME280;30989;52.078;21.014;2023-06-22T09:39:41;170558.34;;;25.79;71.99
45255;BME280;30989;52.078;21.014;2023-06-22T09:42:07;170579.94;;;25.87;66.70
45255;BME280;30989;52.078;21.014;2023-06-22T09:44:33;170575.88;;;25.85;64.12
45255;BME280;30989;52.078;21.014;2023-06-22T09:46:58;170570.50;;;25.83;64.67
45255;BME280;30989;52.078;21.014;2023-06-22T09:49:24;170558.34;;;25.79;62.38
45255;BME280;30989;52.078;21.014;2023-06-22T09:51:49;170578.59;;;25.86;63.27
45255;BME280;30989;52.078;21.014;2023-06-22T09:54:16;170592.09;;;25.91;63.48
45255;BME280;30989;52.078;21.014;2023-06-22T09:56:41;170598.84;;;25.94;63.23
45255;BME280;30989;52.078;21.014;2023-06-22T09:59:07;170615.06;;;26.00;65.22
45255;BME280;30989;52.078;21.014;2023-06-22T10:01:32;170643.47;;;26.11;65.37
45255;BME280;30989;52.078;21.014;2023-06-22T10:03:57;170659.69;;;26.17;63.98
45255;BME280;30989;52.078;21.014;2023-06-22T10:06:23;170673.19;;;26.22;61.50
45255;BME280;30989;52.078;21.014;2023-06-22T10:08:50;170696.16;;;26.30;62.97
45255;BME280;30989;52.078;21.014;2023-06-22T10:11:16;170696.16;;;26.30;63.78
45255;BME280;30989;52.078;21.014;2023-06-22T10:13:41;170732.69;;;26.44;62.60
45255;BME280;30989;52.078;21.014;2023-06-22T10:16:07;170754.31;;;26.52;61.54
45255;BME280;30989;52.078;21.014;2023-06-22T10:18:32;170754.31;;;26.52;58.89
45255;BME280;30989;52.078;21.014;2023-06-22T10:20:58;170765.13;;;26.56;60.82
45255;BME280;30989;52.078;21.014;2023-06-22T10:23:23;170781.34;;;26.62;60.72
45255;BME280;30989;52.078;21.014;2023-06-22T10:25:49;170781.34;;;26.62;61.44
45255;BME280;30989;52.078;21.014;2023-06-22T10:28:15;170792.16;;;26.67;61.18
45255;BME280;30989;52.078;21.014;2023-06-22T10:30:41;170812.41;;;26.74;62.82
45255;BME280;30989;52.078;21.014;2023-06-22T10:33:07;170839.44;;;26.84;63.18
45255;BME280;30989;52.078;21.014;2023-06-22T10:35:33;170855.66;;;26.90;60.35
45255;BME280;30989;52.078;21.014;2023-06-22T10:37:59;170877.31;;;26.99;60.55
45255;BME280;30989;52.078;21.014;2023-06-22T10:40:25;170893.53;;;27.05;60.93
45255;BME280;30989;52.078;21.014;2023-06-22T10:42:50;170921.91;;;27.15;61.47
45255;BME280;30989;52.078;21.014;2023-06-22T10:45:16;170940.84;;;27.22;61.53
45255;BME280;30989;52.078;21.014;2023-06-22T10:47:41;170973.28;;;27.35;62.16
45255;BME280;30989;52.078;21.014;2023-06-22T10:50:10;171005.72;;;27.47;57.12
45255;BME280;30989;52.078;21.014;2023-06-22T10:52:36;171019.22;;;27.52;58.80
45255;BME280;30989;52.078;21.014;2023-06-22T10:55:01;171046.31;;;27.62;61.71
45255;BME280;30989;52.078;21.014;2023-06-22T10:57:27;171094.97;;;27.80;60.49
45255;BME280;30989;52.078;21.014;2023-06-22T10:59:52;171157.16;;;28.04;58.83
45255;BME280;30989;52.078;21.014;2023-06-22T11:02:18;171211.31;;;28.24;60.39
45255;BME280;30989;52.078;21.014;2023-06-22T11:04:43;171261.34;;;28.43;59.07
45255;BME280;30989;52.078;21.014;2023-06-22T11:07:09;171312.72;;;28.62;58.50
45255;BME280;30989;52.078;21.014;2023-06-22T11:09:34;171324.88;;;28.67;56.03
45255;BME280;30989;52.078;21.014;2023-06-22T11:12:00;171335.72;;;28.71;58.78
45255;BME280;30989;52.078;21.014;2023-06-22T11:14:25;171379.03;;;28.87;57.97
45255;BME280;30989;52.078;21.014;2023-06-22T11:16:51;171406.09;;;28.97;56.45
45255;BME280;30989;52.078;21.014;2023-06-22T11:19:17;171437.19;;;29.09;56.69
45255;BME280;30989;52.078;21.014;2023-06-22T11:21:42;171488.59;;;29.28;57.28
45255;BME280;30989;52.078;21.014;2023-06-22T11:24:08;171537.34;;;29.46;56.78
45255;BME280;30989;52.078;21.014;2023-06-22T11:26:33;171560.34;;;29.55;56.06
45255;BME280;30989;52.078;21.014;2023-06-22T11:28:59;171615.81;;;29.76;56.97
45255;BME280;30989;52.078;21.014;2023-06-22T11:31:25;171683.53;;;30.01;55.25
45255;BME280;30989;52.078;21.014;2023-06-22T11:33:50;171751.19;;;30.27;53.58
45255;BME280;30989;52.078;21.014;2023-06-22T11:36:16;171829.69;;;30.56;55.06
45255;BME280;30989;52.078;21.014;2023-06-22T11:38:42;171904.19;;;30.84;53.04
45255;BME280;30989;52.078;21.014;2023-06-22T11:41:09;171986.81;;;31.15;50.10
45255;BME280;30989;52.078;21.014;2023-06-22T11:43:35;172058.63;;;31.42;51.19
45255;BME280;30989;52.078;21.014;2023-06-22T11:46:05;172107.34;;;31.60;49.11
45255;BME280;30989;52.078;21.014;2023-06-22T11:48:31;172145.31;;;31.75;50.16
45255;BME280;30989;52.078;21.014;2023-06-22T11:50:56;172238.75;;;32.10;50.14
45255;BME280;30989;52.078;21.014;2023-06-22T11:53:26;172386.44;;;32.65;49.69
45255;BME280;30989;52.078;21.014;2023-06-22T11:55:51;172481.31;;;33.00;47.47
45255;BME280;30989;52.078;21.014;2023-06-22T11:58:18;172555.84;;;33.28;46.03
45255;BME280;30989;52.078;21.014;2023-06-22T12:00:43;172589.75;;;33.41;45.20
45255;BME280;30989;52.078;21.014;2023-06-22T12:03:10;172626.34;;;33.55;43.00
45255;BME280;30989;52.078;21.014;2023-06-22T12:05:36;172545.00;;;33.24;41.45
45255;BME280;30989;52.078;21.014;2023-06-22T12:08:02;172513.84;;;33.13;43.17
45255;BME280;30989;52.078;21.014;2023-06-22T12:10:27;172520.59;;;33.15;43.14
45255;BME280;30989;52.078;21.014;2023-06-22T12:12:54;172517.91;;;33.14;43.52
45255;BME280;30989;52.078;21.014;2023-06-22T12:15:19;172534.16;;;33.20;43.14
45255;BME280;30989;52.078;21.014;2023-06-22T12:17:45;172555.84;;;33.28;42.51
45255;BME280;30989;52.078;21.014;2023-06-22T12:20:10;172615.50;;;33.51;42.56
45255;BME280;30989;52.078;21.014;2023-06-22T12:22:36;172587.06;;;33.40;40.21
45255;BME280;30989;52.078;21.014;2023-06-22T12:25:03;172648.03;;;33.63;42.10
45255;BME280;30989;52.078;21.014;2023-06-22T12:27:29;172732.09;;;33.94;40.22
45255;BME280;30989;52.078;21.014;2023-06-22T12:29:56;172784.94;;;34.14;41.14
45255;BME280;30989;52.078;21.014;2023-06-22T12:32:21;172858.19;;;34.42;41.25